Terminal Aerodrome Forecast
Issued by NWS Louisville, KY

Home | Current Version | Previous Version | Text Only | Print | Product List | Glossary On
Versions: 1 2 3 4 5 6 7 8 9 10 11 12 13
963
FTUS43 KLMK 290523
TAFBWG
TAF
KBWG 290523Z 2906/3006 19011KT P6SM BKN120
     FM291000 19010KT P6SM SCT020 BKN035
     FM291600 19013G23KT P6SM SCT040=

USA.gov is the U.S. government's official web portal to all federal, state and local government web resources and services.